Time;durP1;ratioP1;P1;durP2;ratioP2;P2;SDS_P1;SDS_P2;PMS_P1;PMS_P2;Temp;Humidity;BMP_temperature;BMP_pressure;BME280_temperature;BME280_humidity;BME280_pressure;Samples;Min_cycle;Max_cycle;Signal;HPM_P1;HPM_P2
2022/08/27 00:00:39;;;;;;;1999.90;999.90;;;17.50;99.90;;;;;;5055007;28;20086;-61
2022/08/27 00:03:05;;;;;;;1999.90;999.90;;;17.40;99.90;;;;;;5054245;28;20049;-61
2022/08/27 00:05:31;;;;;;;1999.90;999.90;;;17.40;99.90;;;;;;5055616;28;20037;-61
2022/08/27 00:07:57;;;;;;;1999.90;999.90;;;17.40;99.90;;;;;;5055285;28;20053;-61
2022/08/27 00:10:26;;;;;;;1999.90;999.90;;;17.40;99.90;;;;;;5053861;28;20044;-61
2022/08/27 00:12:54;;;;;;;1999.90;999.90;;;17.30;99.90;;;;;;5054843;28;20136;-61
2022/08/27 00:15:20;;;;;;;1999.90;999.90;;;17.30;99.90;;;;;;5053963;28;20044;-61
2022/08/27 00:17:46;;;;;;;1999.90;999.90;;;17.50;99.90;;;;;;5055405;28;20372;-61
2022/08/27 00:20:15;;;;;;;1999.90;999.90;;;17.50;99.90;;;;;;5055056;28;20045;-61
2022/08/27 00:22:43;;;;;;;1999.90;999.90;;;;;;;;;;5054709;28;20479;-61
2022/08/27 00:25:10;;;;;;;1999.90;999.90;;;;;;;;;;5055243;28;20057;-61
2022/08/27 00:27:36;;;;;;;1999.90;999.90;;;;;;;;;;5054846;28;20056;-61
2022/08/27 00:30:04;;;;;;;1999.90;999.90;;;;;;;;;;5053239;28;20041;-61
2022/08/27 00:32:30;;;;;;;1999.90;999.90;;;;;;;;;;5055270;28;20446;-61
2022/08/27 00:34:57;;;;;;;1999.90;999.90;;;;;;;;;;5053628;28;20080;-61
2022/08/27 00:37:23;;;;;;;1999.90;999.90;;;;;;;;;;5054008;28;20053;-61
2022/08/27 00:39:49;;;;;;;1999.90;999.90;;;;;;;;;;5055205;28;20041;-61
2022/08/27 00:42:15;;;;;;;1999.90;999.90;;;17.10;99.90;;;;;;5054534;28;20081;-61
2022/08/27 00:44:41;;;;;;;1999.90;999.90;;;17.10;99.90;;;;;;5053018;28;20084;-61
2022/08/27 00:47:13;;;;;;;1999.90;999.90;;;17.00;99.90;;;;;;5055090;28;20056;-61
2022/08/27 00:49:53;;;;;;;1999.90;999.90;;;17.00;99.90;;;;;;5054447;28;20033;-61
2022/08/27 00:52:21;;;;;;;1999.90;999.90;;;17.00;99.90;;;;;;5086648;28;20495;-61
2022/08/27 00:54:50;;;;;;;1999.90;999.90;;;16.90;99.90;;;;;;5054499;28;20041;-61
2022/08/27 00:57:17;;;;;;;1999.90;999.90;;;16.90;99.90;;;;;;5053888;28;20541;-61
2022/08/27 00:59:43;;;;;;;1999.90;999.90;;;16.80;99.90;;;;;;5054465;28;20037;-61
2022/08/27 01:02:18;;;;;;;1999.90;999.90;;;16.80;99.90;;;;;;5054827;28;20052;-61
2022/08/27 01:04:51;;;;;;;1999.90;999.90;;;16.80;99.90;;;;;;5053659;28;20040;-61
2022/08/27 01:07:17;;;;;;;;;;;16.80;99.90;;;;;;5054842;28;20041;-61
2022/08/27 01:09:45;;;;;;;1999.90;999.90;;;16.70;99.90;;;;;;5054755;28;19928;-61
2022/08/27 01:12:12;;;;;;;1999.90;999.90;;;16.60;99.90;;;;;;5052956;28;20041;-61
2022/08/27 01:14:39;;;;;;;1999.90;999.90;;;16.60;99.90;;;;;;5054214;28;20060;-61
2022/08/27 01:17:07;;;;;;;1999.90;999.90;;;16.60;99.90;;;;;;5054555;28;20049;-61
2022/08/27 01:19:37;;;;;;;1999.90;999.90;;;16.70;99.90;;;;;;5053162;28;20045;-61
2022/08/27 01:22:14;;;;;;;1999.90;999.90;;;16.70;99.90;;;;;;5053860;28;20044;-60
2022/08/27 01:24:42;;;;;;;1999.90;999.90;;;16.60;99.90;;;;;;5053882;28;20110;-61
2022/08/27 01:27:12;;;;;;;1999.90;999.90;;;16.60;99.90;;;;;;5052566;28;20072;-61
2022/08/27 01:29:38;;;;;;;1999.90;999.90;;;16.70;99.90;;;;;;5053839;28;20051;-61
2022/08/27 01:32:09;;;;;;;1999.90;999.90;;;16.70;99.90;;;;;;5053631;28;20124;-61
2022/08/27 01:34:36;;;;;;;1999.90;999.90;;;16.70;99.90;;;;;;5052212;28;20499;-61
2022/08/27 01:37:04;;;;;;;1999.90;999.90;;;16.70;99.90;;;;;;5053815;28;20126;-61
2022/08/27 01:39:31;;;;;;;1999.90;999.90;;;16.80;99.90;;;;;;5051714;28;20049;-61
2022/08/27 01:42:03;;;;;;;1999.90;999.90;;;16.80;99.90;;;;;;5051997;28;20140;-61
2022/08/27 01:44:29;;;;;;;1999.90;999.90;;;16.80;99.90;;;;;;5054097;28;20089;-61
2022/08/27 01:46:54;;;;;;;1999.90;999.90;;;16.80;99.90;;;;;;5051042;28;20084;-61
2022/08/27 01:49:20;;;;;;;1999.90;999.90;;;16.80;99.90;;;;;;5052912;28;20041;-61
2022/08/27 01:51:46;;;;;;;1999.90;999.90;;;16.80;99.90;;;;;;5053436;28;20041;-61
2022/08/27 01:54:11;;;;;;;1999.90;999.90;;;16.80;99.90;;;;;;5051449;28;20084;-61
2022/08/27 01:56:37;;;;;;;1999.90;999.90;;;16.80;99.90;;;;;;5052501;28;20053;-61
2022/08/27 01:59:03;;;;;;;1999.90;999.90;;;16.80;99.90;;;;;;5053790;28;20040;-61
2022/08/27 02:01:29;;;;;;;1999.90;999.90;;;16.90;99.90;;;;;;5052801;28;20612;-61
2022/08/27 02:03:54;;;;;;;1999.90;999.90;;;16.90;99.90;;;;;;5053367;28;20049;-61
2022/08/27 02:06:20;;;;;;;1999.90;999.90;;;16.90;99.90;;;;;;5052045;28;20067;-61
2022/08/27 02:08:46;;;;;;;1999.90;999.90;;;16.90;99.90;;;;;;5051471;28;20476;-61
2022/08/27 02:11:11;;;;;;;1999.90;999.90;;;16.90;99.90;;;;;;5053194;28;20056;-61
2022/08/27 02:13:38;;;;;;;1999.90;999.90;;;16.90;99.90;;;;;;5052099;28;20450;-61
2022/08/27 02:16:04;;;;;;;1999.90;999.90;;;17.00;99.90;;;;;;5051648;28;20099;-61
2022/08/27 02:18:30;;;;;;;1999.90;999.90;;;17.00;99.90;;;;;;5053356;28;20041;-61
2022/08/27 02:20:55;;;;;;;1999.90;999.90;;;16.90;99.90;;;;;;5052444;28;20052;-61
2022/08/27 02:23:21;;;;;;;1999.90;999.90;;;16.90;99.90;;;;;;5052623;28;20064;-61
2022/08/27 02:25:47;;;;;;;1999.90;999.90;;;16.90;99.90;;;;;;5053348;28;20578;-61
2022/08/27 02:28:13;;;;;;;1999.90;999.90;;;16.90;99.90;;;;;;5052249;28;20056;-61
2022/08/27 02:30:39;;;;;;;1999.90;999.90;;;16.90;99.90;;;;;;5052718;28;20072;-61
2022/08/27 02:33:05;;;;;;;1999.90;999.90;;;16.80;99.90;;;;;;5052858;28;20069;-61
2022/08/27 02:35:33;;;;;;;1999.90;999.90;;;16.90;99.90;;;;;;5050809;28;20560;-61
2022/08/27 02:37:59;;;;;;;1999.90;999.90;;;16.80;99.90;;;;;;5052873;28;20052;-61
2022/08/27 02:40:25;;;;;;;1999.90;999.90;;;16.80;99.90;;;;;;5051307;28;20037;-61
2022/08/27 02:42:51;;;;;;;1999.90;999.90;;;16.80;99.90;;;;;;5052068;28;20049;-61
2022/08/27 02:45:19;;;;;;;1999.90;999.90;;;16.80;99.90;;;;;;5052760;28;20067;-61
2022/08/27 02:47:44;;;;;;;1999.90;999.90;;;16.80;99.90;;;;;;5051485;28;20445;-61
2022/08/27 02:50:12;;;;;;;1999.90;999.90;;;16.80;99.90;;;;;;5051839;28;20045;-61
2022/08/27 02:52:38;;;;;;;1999.90;999.90;;;16.80;99.90;;;;;;5052494;28;20045;-61
2022/08/27 02:55:04;;;;;;;1999.90;999.90;;;16.80;99.90;;;;;;5052958;28;20043;-61
2022/08/27 02:57:30;;;;;;;1999.90;999.90;;;16.80;99.90;;;;;;5083095;28;20110;-61
2022/08/27 02:59:56;;;;;;;1999.90;999.90;;;16.80;99.90;;;;;;5052282;28;20057;-61
2022/08/27 03:02:22;;;;;;;1999.90;999.90;;;16.80;99.90;;;;;;5052784;28;20053;-61
2022/08/27 03:04:48;;;;;;;1999.90;999.90;;;16.80;99.90;;;;;;5051757;28;20057;-61
2022/08/27 03:07:14;;;;;;;1999.90;999.90;;;16.90;99.90;;;;;;5052497;28;20459;-61
2022/08/27 03:09:40;;;;;;;1999.90;999.90;;;16.90;99.90;;;;;;5052545;28;20049;-61
2022/08/27 03:12:06;;;;;;;1999.90;999.90;;;17.00;99.90;;;;;;5051262;28;20088;-61
2022/08/27 03:14:32;;;;;;;1999.90;999.90;;;17.00;99.90;;;;;;5051056;28;20061;-61
2022/08/27 03:18:16;;;;;;;1999.90;999.90;;;17.00;99.90;;;;;;5051832;28;20511;-61
2022/08/27 03:19:44;;;;;;;1999.90;999.90;;;17.10;99.90;;;;;;5050750;28;20053;-61
2022/08/27 03:22:10;;;;;;;1999.90;999.90;;;17.00;99.90;;;;;;5084734;28;20049;-61
2022/08/27 03:24:36;;;;;;;1999.90;999.90;;;17.00;99.90;;;;;;5051322;28;20084;-61
2022/08/27 03:27:02;;;;;;;1999.90;999.90;;;16.90;99.90;;;;;;5050458;28;20057;-61
2022/08/27 03:29:27;;;;;;;1999.90;999.90;;;16.80;99.90;;;;;;5052554;28;20106;-60
2022/08/27 03:31:53;;;;;;;1999.90;999.90;;;16.80;99.90;;;;;;5051808;28;20540;-61
2022/08/27 03:34:19;;;;;;;1999.90;999.90;;;16.80;99.90;;;;;;5050205;28;20499;-61
2022/08/27 03:36:47;;;;;;;1999.90;999.90;;;16.70;99.90;;;;;;5052596;28;20099;-61
2022/08/27 03:39:13;;;;;;;1999.90;999.90;;;16.70;99.90;;;;;;5050626;28;20136;-61
2022/08/27 03:41:39;;;;;;;1999.90;999.90;;;16.70;99.90;;;;;;5051561;28;20136;-61
2022/08/27 03:44:04;;;;;;;1999.90;999.90;;;16.60;99.90;;;;;;5052456;28;20079;-61
2022/08/27 03:46:30;;;;;;;1999.90;999.90;;;16.60;99.90;;;;;;5051786;28;20459;-61
2022/08/27 03:48:56;;;;;;;1999.90;999.90;;;16.50;99.90;;;;;;5051765;28;20136;-61
2022/08/27 03:51:22;;;;;;;1999.90;999.90;;;16.50;99.90;;;;;;5052009;28;20048;-61
2022/08/27 03:53:48;;;;;;;1999.90;999.90;;;16.50;99.90;;;;;;5049841;28;20114;-61
2022/08/27 03:56:14;;;;;;;1999.90;999.90;;;16.50;99.90;;;;;;5051779;28;20045;-61
2022/08/27 03:58:40;;;;;;;1999.90;999.90;;;16.50;99.90;;;;;;5052256;28;20120;-61
2022/08/27 04:01:06;;;;;;;1999.90;999.90;;;16.50;99.90;;;;;;5049722;28;20085;-61
2022/08/27 04:03:34;;;;;;;1999.90;999.90;;;16.50;99.90;;;;;;5051604;28;20556;-61
2022/08/27 04:05:59;;;;;;;1999.90;999.90;;;16.60;99.90;;;;;;5052296;28;20049;-61
2022/08/27 04:08:26;;;;;;;1999.90;999.90;;;16.60;99.90;;;;;;5049689;28;20041;-61
2022/08/27 04:10:53;;;;;;;1999.90;999.90;;;16.50;99.90;;;;;;5054511;28;20088;-61
2022/08/27 04:13:20;;;;;;;1999.90;999.90;;;16.60;99.90;;;;;;5053532;28;20089;-61
2022/08/27 04:15:48;;;;;;;1999.90;999.90;;;16.60;99.90;;;;;;5055529;28;20048;-61
2022/08/27 04:18:15;;;;;;;1999.90;999.90;;;16.50;99.90;;;;;;5054910;28;20045;-61
2022/08/27 04:20:46;;;;;;;1999.90;999.90;;;16.40;99.90;;;;;;5054965;28;20111;-61
2022/08/27 04:23:12;;;;;;;1999.90;999.90;;;16.50;99.90;;;;;;5055021;28;20049;-61
2022/08/27 04:25:40;;;;;;;1999.90;999.90;;;16.50;99.90;;;;;;5049261;28;20556;-61
2022/08/27 04:28:06;;;;;;;1999.90;999.90;;;16.40;99.90;;;;;;5054413;28;20037;-61
2022/08/27 04:30:32;;;;;;;1999.90;999.90;;;16.40;99.90;;;;;;5055142;28;20454;-61
2022/08/27 04:32:58;;;;;;;1999.90;999.90;;;16.40;99.90;;;;;;5054697;28;20049;-61
2022/08/27 04:35:24;;;;;;;1999.90;999.90;;;16.30;99.90;;;;;;5054148;28;20163;-61
2022/08/27 04:37:50;;;;;;;1999.90;999.90;;;16.30;99.90;;;;;;5055099;28;20053;-61
2022/08/27 04:40:16;;;;;;;1999.90;999.90;;;16.40;99.90;;;;;;5054922;28;20185;-61
2022/08/27 04:42:41;;;;;;;1999.90;999.90;;;16.30;99.90;;;;;;5053832;28;20051;-61
2022/08/27 04:45:08;;;;;;;1999.90;999.90;;;16.40;99.90;;;;;;5052873;28;20044;-61
2022/08/27 04:47:34;;;;;;;1999.90;999.90;;;16.50;99.90;;;;;;5053254;28;20049;-61
2022/08/27 04:50:00;;;;;;;1999.90;999.90;;;16.50;99.90;;;;;;5054056;28;20566;-61
2022/08/27 04:52:26;;;;;;;1999.90;999.90;;;16.50;99.90;;;;;;5054411;28;20045;-61
2022/08/27 04:54:52;;;;;;;1999.90;999.90;;;16.50;99.90;;;;;;5054591;28;20044;-61
2022/08/27 04:57:18;;;;;;;1999.90;999.90;;;16.50;99.90;;;;;;5052399;28;20097;-61
2022/08/27 04:59:44;;;;;;;1999.90;999.90;;;16.50;99.90;;;;;;5054427;28;20041;-61
2022/08/27 05:02:10;;;;;;;1999.90;999.90;;;16.50;99.90;;;;;;5053581;28;20045;-61
2022/08/27 05:04:39;;;;;;;1999.90;999.90;;;16.50;99.90;;;;;;5053715;28;20056;-61
2022/08/27 05:07:06;;;;;;;1999.90;999.90;;;16.50;99.90;;;;;;5054812;28;20041;-61
2022/08/27 05:09:33;;;;;;;1999.90;999.90;;;16.50;99.90;;;;;;5053943;28;20049;-61
2022/08/27 05:12:00;;;;;;;1999.90;999.90;;;16.40;99.90;;;;;;5053354;28;20037;-61
2022/08/27 05:14:29;;;;;;;1999.90;999.90;;;16.40;99.90;;;;;;5052710;28;20060;-61
2022/08/27 05:16:56;;;;;;;1999.90;999.90;;;16.40;99.90;;;;;;5053598;28;20052;-60
2022/08/27 05:19:22;;;;;;;1999.90;999.90;;;16.40;99.90;;;;;;5053858;28;20057;-61
2022/08/27 05:21:50;;;;;;;1999.90;999.90;;;16.30;99.90;;;;;;5053552;28;20049;-61
2022/08/27 05:24:17;;;;;;;1999.90;999.90;;;16.40;99.90;;;;;;5053473;28;20045;-61
2022/08/27 05:26:43;;;;;;;1999.90;999.90;;;16.50;99.90;;;;;;5054265;28;20067;-61
2022/08/27 05:29:09;;;;;;;1999.90;999.90;;;16.50;99.90;;;;;;5052561;28;20064;-61
2022/08/27 05:31:36;;;;;;;1999.90;999.90;;;16.60;99.90;;;;;;5052070;28;20073;-61
2022/08/27 05:34:04;;;;;;;1999.90;999.90;;;16.60;99.90;;;;;;5054000;28;20049;-61
2022/08/27 05:36:32;;;;;;;1999.90;999.90;;;16.70;99.90;;;;;;5054152;28;20041;-61
2022/08/27 05:39:00;;;;;;;1999.90;999.90;;;16.70;99.90;;;;;;5052507;28;20495;-61
2022/08/27 05:41:29;;;;;;;1999.90;999.90;;;16.80;99.90;;;;;;5053941;28;20045;-61
2022/08/27 05:43:58;;;;;;;1999.90;999.90;;;16.80;99.90;;;;;;5053814;28;20053;-61
2022/08/27 05:46:25;;;;;;;1999.90;999.90;;;17.00;99.90;;;;;;5052608;28;20099;-61
2022/08/27 05:48:54;;;;;;;1999.90;999.90;;;17.10;99.90;;;;;;5053867;28;20049;-61
2022/08/27 05:51:23;;;;;;;1999.90;999.90;;;17.30;99.90;;;;;;5052285;28;20174;-61
2022/08/27 05:53:48;;;;;;;1999.90;999.90;;;17.40;99.90;;;;;;5050612;28;20041;-61
2022/08/27 05:56:19;;;;;;;1999.90;999.90;;;17.50;99.90;;;;;;5053198;28;20099;-61
2022/08/27 06:01:33;;;;;;;1999.90;999.90;;;17.80;99.90;;;;;;5045449;28;20041;-61
2022/08/27 06:03:59;;;;;;;1999.90;999.90;;;;;;;;;;5052768;28;20389;-61
2022/08/27 06:06:26;;;;;;;1999.90;999.90;;;;;;;;;;4997395;28;20169;-61
2022/08/27 06:08:53;;;;;;;1999.90;999.90;;;18.00;99.90;;;;;;5052102;28;20402;-61
2022/08/27 06:11:20;;;;;;;1999.90;999.90;;;18.10;99.90;;;;;;5051781;28;20087;-61
2022/08/27 06:13:47;;;;;;;1999.90;999.90;;;18.10;99.90;;;;;;5051898;28;20488;-61
2022/08/27 06:16:15;;;;;;;1999.90;999.90;;;18.10;99.90;;;;;;5052540;28;20041;-61
2022/08/27 06:18:43;;;;;;;1999.90;999.90;;;18.10;99.90;;;;;;5053189;28;20095;-61
2022/08/27 06:21:10;;;;;;;1999.90;999.90;;;18.10;99.90;;;;;;5050636;28;20128;-61
2022/08/27 06:23:36;;;;;;;1999.90;999.90;;;18.20;99.90;;;;;;5049671;28;20045;-61
2022/08/27 06:26:06;;;;;;;1999.90;999.90;;;18.30;99.90;;;;;;5052488;28;20037;-61
2022/08/27 06:28:33;;;;;;;1999.90;999.90;;;18.60;99.90;;;;;;5052313;28;20041;-60
2022/08/27 06:31:07;;;;;;;1999.90;999.90;;;;;;;;;;5052633;28;20052;-61
2022/08/27 06:33:33;;;;;;;1999.90;999.90;;;;;;;;;;5052884;28;20041;-61
2022/08/27 06:36:00;;;;;;;1999.90;999.90;;;;;;;;;;5034445;28;20041;-61
2022/08/27 06:38:27;;;;;;;1999.90;999.90;;;;;;;;;;5052379;28;20051;-61
2022/08/27 06:40:53;;;;;;;1999.90;999.90;;;;;;;;;;5052180;28;20083;-61
2022/08/27 06:43:19;;;;;;;1999.90;999.90;;;;;;;;;;5052590;28;20052;-61
2022/08/27 06:45:46;;;;;;;1999.90;999.90;;;;;;;;;;5052670;28;20049;-61
2022/08/27 06:48:12;;;;;;;1999.90;999.90;;;;;;;;;;5052115;28;20045;-61
2022/08/27 06:50:39;;;;;;;1999.90;999.90;;;;;;;;;;5052541;28;20049;-61
2022/08/27 06:53:05;;;;;;;1999.90;999.90;;;;;;;;;;5052248;28;20048;-61
2022/08/27 06:55:32;;;;;;;1999.90;999.90;;;;;;;;;;5052417;28;20441;-61
2022/08/27 06:57:58;;;;;;;1999.90;999.90;;;;;;;;;;5052273;28;20053;-61
2022/08/27 07:00:24;;;;;;;1999.90;999.90;;;;;;;;;;5052531;28;20041;-61
2022/08/27 07:02:51;;;;;;;1999.90;999.90;;;;;;;;;;5052073;28;20048;-61
2022/08/27 07:05:17;;;;;;;1999.90;999.90;;;;;;;;;;5052039;28;20480;-61
2022/08/27 07:07:44;;;;;;;;;;;;;;;;;;5051089;28;20063;-61
2022/08/27 07:10:10;;;;;;;;;;;;;;;;;;5052424;28;19925;-61
2022/08/27 07:12:36;;;;;;;;;;;;;;;;;;5052851;28;19932;-61
2022/08/27 07:15:02;;;;;;;;;;;;;;;;;;5052892;28;19932;-61
2022/08/27 07:17:28;;;;;;;;;;;;;;;;;;5052482;28;19931;-61
2022/08/27 07:19:54;;;;;;;;;;;;;;;;;;5053057;28;20023;-61
2022/08/27 07:22:20;;;;;;;;;;;;;;;;;;5052790;28;19935;-61
2022/08/27 07:24:46;;;;;;;;;;;;;;;;;;5051626;28;19972;-61
2022/08/27 07:27:12;;;;;;;;;;;;;;;;;;5053126;28;20318;-61
2022/08/27 07:29:38;;;;;;;;;;;;;;;;;;5052675;28;19925;-61
2022/08/27 07:32:04;;;;;;;;;;;;;;;;;;5050299;28;19932;-61
2022/08/27 07:34:30;;;;;;;;;;;;;;;;;;5053020;28;19932;-61
2022/08/27 07:36:56;;;;;;;;;;;;;;;;;;5052501;28;19925;-61
2022/08/27 07:39:22;;;;;;;;;;;;;;;;;;5051982;28;19947;-61
2022/08/27 07:44:33;;;;;;;;;;;;;;;;;;5052582;28;20058;-61
2022/08/27 07:46:59;;;;;;;;;;;;;;;;;;5056242;28;20023;-61
2022/08/27 07:49:25;;;;;;;;;;;;;;;;;;5056279;28;19924;-61
2022/08/27 07:51:51;;;;;;;;;;;20.40;99.90;;;;;;5035790;28;19925;-61
2022/08/27 07:54:16;;;;;;;;;;;20.40;99.90;;;;;;5087665;28;20398;-61
2022/08/27 07:56:42;;;;;;;1999.90;999.90;;;20.70;99.90;;;;;;5056465;28;19924;-61
2022/08/27 07:59:08;;;;;;;;;;;20.90;99.90;;;;;;5054787;28;20044;-61
2022/08/27 08:01:34;;;;;;;;;;;;;;;;;;5056044;28;19921;-61
2022/08/27 08:04:00;;;;;;;;;;;;;;;;;;5055954;28;20321;-61
2022/08/27 08:06:26;;;;;;;;;;;;;;;;;;5055525;28;19921;-61
2022/08/27 08:08:52;;;;;;;;;;;;;;;;;;5056005;28;19921;-61
2022/08/27 08:11:19;;;;;;;;;;;;;;;;;;5056430;28;20015;-61
2022/08/27 08:13:45;;;;;;;;;;;;;;;;;;5054962;28;19928;-61
2022/08/27 08:16:11;;;;;;;;;;;21.80;99.90;;;;;;5055349;28;19921;-61
2022/08/27 08:18:37;;;;;;;;;;;21.70;99.90;;;;;;5056040;28;19917;-61
2022/08/27 08:21:05;;;;;;;;;;;21.60;99.90;;;;;;5055373;28;19920;-61
2022/08/27 08:23:32;;;;;;;;;;;21.50;99.90;;;;;;5055640;28;19924;-61
2022/08/27 08:25:58;;;;;;;;;;;21.50;99.90;;;;;;5055593;28;19972;-61
2022/08/27 08:28:24;;;;;;;;;;;21.40;99.90;;;;;;5055255;28;19929;-61
2022/08/27 08:30:50;;;;;;;;;;;21.40;99.90;;;;;;5055547;28;19946;-61
2022/08/27 08:33:16;;;;;;;;;;;21.50;99.90;;;;;;5054170;28;19928;-61
2022/08/27 08:35:42;;;;;;;;;;;21.60;99.90;;;;;;5053237;28;19928;-61
2022/08/27 08:38:08;;;;;;;;;;;21.60;99.90;;;;;;5055506;28;19925;-61
2022/08/27 08:40:35;;;;;;;;;;;21.70;99.90;;;;;;5055178;28;19921;-61
2022/08/27 08:43:02;;;;;;;;;;;21.60;99.90;;;;;;5055151;28;19928;-61
2022/08/27 08:45:30;;;;;;;;;;;21.60;99.90;;;;;;5055015;28;20393;-61
2022/08/27 08:48:05;;;;;;;;;;;21.60;99.90;;;;;;5055143;28;20011;-61
2022/08/27 08:50:33;;;;;;;;;;;21.60;99.90;;;;;;5055183;28;19943;-61
2022/08/27 08:53:08;;;;;;;;;;;21.70;99.90;;;;;;5054671;28;20513;-61
2022/08/27 08:55:34;;;;;;;;;;;21.70;99.90;;;;;;5054716;28;19916;-61
2022/08/27 08:58:16;;;;;;;;;;;21.60;99.90;;;;;;5053797;28;19926;-61
2022/08/27 09:00:43;;;;;;;;;;;21.40;99.90;;;;;;5055097;28;20278;-61
2022/08/27 09:03:11;;;;;;;;;;;21.30;99.90;;;;;;5054564;28;19921;-61
2022/08/27 09:05:39;;;;;;;;;;;21.30;99.90;;;;;;5055089;28;20404;-61
2022/08/27 09:08:10;;;;;;;;;;;21.20;99.90;;;;;;5054910;28;20293;-61
2022/08/27 09:10:41;;;;;;;;;;;21.30;99.90;;;;;;5054002;28;19920;-61
2022/08/27 09:13:13;;;;;;;;;;;21.30;99.90;;;;;;5054513;28;19964;-61
2022/08/27 09:15:39;;;;;;;;;;;21.40;99.90;;;;;;5054174;28;20432;-61
2022/08/27 09:18:08;;;;;;;;;;;21.40;99.90;;;;;;5052811;28;19916;-61
2022/08/27 09:20:35;;;;;;;;;;;21.30;99.90;;;;;;5054459;28;20264;-61
2022/08/27 09:23:13;;;;;;;;;;;21.20;99.90;;;;;;5054139;28;19921;-61
2022/08/27 09:25:40;;;;;;;;;;;21.10;99.90;;;;;;5053099;28;19951;-61
2022/08/27 09:29:14;;;;;;;;;;;21.10;99.90;;;;;;5054241;28;20367;-61
2022/08/27 09:30:58;;;;;;;;;;;21.00;99.90;;;;;;5053677;28;19947;-61
2022/08/27 09:33:24;;;;;;;;;;;21.00;99.90;;;;;;5054555;28;19917;-61
2022/08/27 09:35:51;;;;;;;;;;;21.00;99.90;;;;;;5053928;28;19967;-61
2022/08/27 09:38:25;;;;;;;;;;;21.00;99.90;;;;;;5053920;28;19916;-61
2022/08/27 09:40:51;;;;;;;;;;;21.00;99.90;;;;;;5054668;28;19974;-61
2022/08/27 09:43:21;;;;;;;;;;;21.00;99.90;;;;;;5054166;28;19968;-61
2022/08/27 09:45:48;;;;;;;;;;;21.00;99.90;;;;;;5053112;28;20023;-61
2022/08/27 09:48:16;;;;;;;;;;;20.90;99.90;;;;;;5054536;28;19943;-61
2022/08/27 09:50:50;;;;;;;;;;;20.90;99.90;;;;;;5053812;28;20020;-60
2022/08/27 09:53:18;;;;;;;;;;;21.00;99.90;;;;;;5052313;28;20367;-61
2022/08/27 09:55:47;;;;;;;;;;;21.00;99.90;;;;;;5034239;28;19916;-61
2022/08/27 09:58:23;;;;;;;;;;;21.10;99.90;;;;;;5033481;28;19921;-61
2022/08/27 10:00:58;;;;;;;;;;;21.10;99.90;;;;;;5034195;28;19917;-61
2022/08/27 10:03:24;;;;;;;;;;;21.10;99.90;;;;;;5044490;28;19955;-61
2022/08/27 10:05:50;;;;;;;;;;;21.20;99.90;;;;;;5053072;28;19971;-61
2022/08/27 10:08:20;;;;;;;;;;;21.20;99.90;;;;;;5053481;28;20016;-61
2022/08/27 10:11:03;;;;;;;;;;;21.30;99.90;;;;;;5053990;28;19920;-61
2022/08/27 10:13:30;;;;;;;;;;;21.50;99.90;;;;;;5052489;28;19966;-61
2022/08/27 10:16:05;;;;;;;;;;;21.60;99.90;;;;;;5085866;28;19921;-61
2022/08/27 10:18:51;;;;;;;;;;;21.80;99.90;;;;;;5053931;28;19924;-61
2022/08/27 10:21:22;;;;;;;;;;;21.90;99.90;;;;;;5084925;28;19979;-61
2022/08/27 10:23:55;;;;;;;1999.90;999.90;;;22.50;99.70;;;;;;5053262;28;19925;-61
2022/08/27 10:26:27;;;;;;;1999.90;999.90;;;23.20;98.30;;;;;;5051596;28;20450;-61
2022/08/27 10:29:11;;;;;;;1999.90;999.90;;;24.10;97.30;;;;;;5052209;28;20092;-61
2022/08/27 10:32:00;;;;;;;1999.90;999.90;;;24.80;95.70;;;;;;5053105;28;20083;-61
2022/08/27 10:34:44;;;;;;;1999.90;999.90;;;25.40;94.00;;;;;;5052241;28;20139;-61
2022/08/27 10:37:35;;;;;;;1999.90;999.90;;;25.60;93.00;;;;;;5053048;28;20102;-61
2022/08/27 10:40:26;;;;;;;1999.90;999.90;;;25.50;91.40;;;;;;5032544;28;20046;-59
2022/08/27 10:43:14;;;;;;;1999.90;999.90;;;25.60;91.80;;;;;;5032567;28;20045;-59
2022/08/27 10:45:51;;;;;;;1999.90;999.90;;;25.80;91.90;;;;;;5033088;28;20049;-59
2022/08/27 10:48:23;;;;;;;1999.90;999.90;;;25.80;91.80;;;;;;5047693;28;20056;-59
2022/08/27 10:50:54;;;;;;;1999.90;999.90;;;26.20;91.60;;;;;;5052639;28;20045;-59
2022/08/27 10:53:54;;;;;;;1999.90;999.90;;;26.10;90.20;;;;;;5052742;28;20049;-59
2022/08/27 10:56:31;;;;;;;1999.90;999.90;;;25.10;91.00;;;;;;5051595;28;20044;-59
2022/08/27 10:59:05;;;;;;;1999.90;999.90;;;24.10;92.40;;;;;;5052256;28;20448;-59
2022/08/27 11:01:38;;;;;;;1999.90;999.90;;;23.30;93.90;;;;;;5052137;28;20106;-59
2022/08/27 11:04:09;;;;;;;1999.90;999.90;;;23.10;94.80;;;;;;5052125;28;20076;-59
2022/08/27 11:06:41;;;;;;;1999.90;999.90;;;23.40;94.00;;;;;;5064659;28;20053;-59
2022/08/27 11:09:19;;;;;;;;;;;24.10;93.60;;;;;;5032563;28;20434;-59
2022/08/27 11:11:49;;;;;;;1999.90;999.90;;;24.10;92.40;;;;;;5032514;28;19925;-59
2022/08/27 11:14:33;;;;;;;1999.90;999.90;;;23.60;92.20;;;;;;5043150;28;20049;-59
2022/08/27 11:17:08;;;;;;;1999.90;999.90;;;23.30;93.90;;;;;;5052020;28;20052;-59
2022/08/27 11:19:49;;;;;;;1999.90;999.90;;;23.30;93.80;;;;;;5052763;28;20041;-59
2022/08/27 11:22:19;;;;;;;1999.90;999.90;;;23.10;94.60;;;;;;5087837;28;20049;-59
2022/08/27 11:24:55;;;;;;;1999.90;999.90;;;23.00;94.50;;;;;;5056407;28;20053;-59
2022/08/27 11:27:25;;;;;;;1999.90;999.90;;;23.70;93.80;;;;;;5056376;28;20087;-59
2022/08/27 11:30:07;;;;;;;1999.90;999.90;;;24.10;92.90;;;;;;5054367;28;20195;-59
2022/08/27 11:32:53;;;;;;;1999.90;999.90;;;23.60;92.40;;;;;;5056107;28;20045;-59
2022/08/27 11:35:25;;;;;;;1999.90;999.90;;;23.20;93.70;;;;;;5055922;28;20490;-59
2022/08/27 11:38:02;;;;;;;1999.90;999.90;;;23.60;92.70;;;;;;5055754;28;20041;-59
2022/08/27 11:40:53;;;;;;;1999.90;999.90;;;24.50;91.60;;;;;;5056143;28;20118;-59
2022/08/27 11:43:23;;;;;;;1999.90;999.90;;;25.80;90.40;;;;;;5053937;28;20052;-59
2022/08/27 11:45:56;;;;;;;1999.90;999.90;;;26.90;99.90;;;;;;5054663;28;20064;-59
2022/08/27 11:48:33;;;;;;;1999.90;999.90;;;;;;;;;;5055909;28;20479;-59
2022/08/27 11:51:01;;;;;;;1999.90;999.90;;;27.70;84.00;;;;;;5055078;28;20041;-59
2022/08/27 11:53:32;;;;;;;1999.90;999.90;;;28.10;81.60;;;;;;5055853;28;20472;-59
2022/08/27 11:56:08;;;;;;;1999.90;999.90;;;28.30;79.20;;;;;;5054653;28;20399;-59
2022/08/27 11:58:34;;;;;;;1999.90;999.90;;;28.60;77.40;;;;;;5053456;28;20047;-59
2022/08/27 12:01:01;;;;;;;1999.90;999.90;;;28.50;78.40;;;;;;5055840;28;20121;-59
2022/08/27 12:03:31;;;;;;;1999.90;999.90;;;28.80;76.30;;;;;;5054061;28;20697;-59
2022/08/27 12:05:56;;;;;;;1999.90;999.90;;;28.60;74.60;;;;;;5055061;28;20499;-59
2022/08/27 12:08:22;;;;;;;1999.90;999.90;;;28.10;75.80;;;;;;5055345;28;20102;-59
2022/08/27 12:11:28;;;;;;;1999.90;999.90;;;27.70;75.80;;;;;;5053974;28;20415;-59
2022/08/27 12:14:11;;;;;;;1999.90;999.90;;;27.00;76.80;;;;;;5054544;28;20052;-59
2022/08/27 12:16:38;;;;;;;1999.90;999.90;;;27.00;78.20;;;;;;5086150;28;20049;-59
2022/08/27 12:19:21;;;;;;;1999.90;999.90;;;27.50;76.80;;;;;;5053311;28;20088;-59
2022/08/27 12:21:46;;;;;;;;;;;27.90;77.40;;;;;;5054962;28;20124;-59
2022/08/27 12:24:33;;;;;;;1999.90;999.90;;;28.60;75.30;;;;;;5085946;28;20003;-59
2022/08/27 12:27:19;;;;;;;1999.90;999.90;;;28.70;74.60;;;;;;5053241;28;20057;-59
2022/08/27 12:29:50;;;;;;;1999.90;999.90;;;29.00;73.60;;;;;;5052751;28;20059;-59
2022/08/27 12:32:24;;;;;;;1999.90;999.90;;;29.30;71.90;;;;;;5053579;28;20045;-59
2022/08/27 12:35:03;;;;;;;1999.90;999.90;;;28.90;72.00;;;;;;5052513;28;20053;-59
2022/08/27 12:37:34;;;;;;;1999.90;999.90;;;28.80;72.60;;;;;;5054228;28;20052;-59
2022/08/27 12:40:09;;;;;;;1999.90;999.90;;;28.20;73.60;;;;;;5053561;28;20049;-59
2022/08/27 12:42:35;;;;;;;1999.90;999.90;;;26.80;75.50;;;;;;5051862;28;20095;-59
2022/08/27 12:45:01;;;;;;;1999.90;999.90;;;25.60;78.40;;;;;;5053984;28;20056;-59
2022/08/27 12:47:27;;;;;;;1999.90;999.90;;;25.30;80.00;;;;;;5053359;28;20055;-59
2022/08/27 12:49:57;;;;;;;1999.90;999.90;;;25.80;80.00;;;;;;5053828;28;20045;-59
2022/08/27 12:52:37;;;;;;;1999.90;999.90;;;25.80;79.30;;;;;;5051881;28;20052;-59
2022/08/27 12:55:11;;;;;;;1999.90;999.90;;;25.10;82.60;;;;;;5052852;28;20049;-59
2022/08/27 12:57:50;;;;;;;1999.90;999.90;;;24.50;83.40;;;;;;5052280;28;20438;-59
2022/08/27 13:00:19;;;;;;;1999.90;999.90;;;24.20;85.60;;;;;;5053493;28;20041;-59